createdAt,value
2022-12-26T00:00:48.069Z,96799.34
2022-12-26T00:03:15.284Z,96791.53
2022-12-26T00:05:41.777Z,96801.56
2022-12-26T00:08:08.129Z,96801.03
2022-12-26T00:10:34.454Z,96807.91
2022-12-26T00:13:38.751Z,96804.69
2022-12-26T00:16:33.038Z,96811.16
2022-12-26T00:19:14.718Z,96821.19
2022-12-26T00:21:41.470Z,96825.31
2022-12-26T00:24:09.934Z,96829.72
2022-12-26T00:26:48.575Z,96828.88
2022-12-26T00:29:14.906Z,96832.19
2022-12-26T00:31:50.247Z,96835.34
2022-12-26T00:34:16.739Z,96840.16
2022-12-26T00:36:43.179Z,96841.66
2022-12-26T00:39:09.584Z,96845.50
2022-12-26T00:41:42.721Z,96847.97
2022-12-26T00:44:09.061Z,96843.00
2022-12-26T00:46:35.684Z,96841.38
2022-12-26T00:49:02.119Z,96844.25
2022-12-26T00:51:28.508Z,96834.63
2022-12-26T00:54:05.997Z,96842.31
2022-12-26T00:56:32.329Z,96843.97
2022-12-26T01:02:39.213Z,96846.31
2022-12-26T01:05:10.460Z,96842.72
2022-12-26T01:08:19.947Z,96843.72
2022-12-26T01:10:48.321Z,96841.34
2022-12-26T01:13:15.729Z,96836.00
2022-12-26T01:15:47.589Z,96840.53
2022-12-26T01:18:24.841Z,96834.88
2022-12-26T01:20:51.494Z,96833.91
2022-12-26T01:23:42.551Z,96828.56
2022-12-26T01:26:17.734Z,96823.94
2022-12-26T01:28:46.682Z,96820.63
2022-12-26T01:31:32.066Z,96828.44
2022-12-26T01:33:58.448Z,96823.13
2022-12-26T01:37:01.811Z,96833.13
2022-12-26T01:39:28.155Z,96825.03
2022-12-26T01:45:46.575Z,96843.03
2022-12-26T01:48:26.328Z,96830.84
2022-12-26T01:50:57.300Z,96839.91
2022-12-26T01:53:28.273Z,96842.22
2022-12-26T01:55:57.975Z,96842.25
2022-12-26T01:58:30.126Z,96837.31
2022-12-26T02:00:56.606Z,96834.19
2022-12-26T02:03:41.874Z,96843.88
2022-12-26T02:06:10.627Z,96829.34
2022-12-26T02:08:49.116Z,96833.44
2022-12-26T02:11:33.735Z,96827.53
2022-12-26T02:14:00.402Z,96832.75
2022-12-26T02:16:38.692Z,96830.84
2022-12-26T02:19:06.777Z,96835.34
2022-12-26T02:21:33.133Z,96837.97
2022-12-26T02:23:59.460Z,96839.50
2022-12-26T02:26:28.876Z,96835.66
2022-12-26T02:29:13.621Z,96829.06
2022-12-26T02:31:43.086Z,96829.63
2022-12-26T02:34:19.589Z,96841.72
2022-12-26T02:36:45.983Z,96839.63
2022-12-26T02:39:44.689Z,96815.06
2022-12-26T02:42:26.903Z,96807.06
2022-12-26T02:45:13.874Z,96814.59
2022-12-26T02:47:57.120Z,96812.53
2022-12-26T02:51:11.606Z,96809.81
2022-12-26T02:54:18.332Z,96807.06
2022-12-26T02:57:14.569Z,96816.94
2022-12-26T03:00:06.479Z,96821.47
2022-12-26T03:03:11.870Z,96809.81
2022-12-26T03:06:01.136Z,96814.47
2022-12-26T03:08:52.329Z,96814.22
2022-12-26T03:11:37.226Z,96809.28
2022-12-26T03:14:26.315Z,96814.88
2022-12-26T03:17:15.678Z,96807.75
2022-12-26T03:19:58.375Z,96808.03
2022-12-26T03:22:45.149Z,96813.63
2022-12-26T03:25:33.088Z,96807.75
2022-12-26T03:27:59.427Z,96810.38
2022-12-26T03:30:52.153Z,96810.50
2022-12-26T03:33:43.598Z,96801.84
2022-12-26T03:36:32.841Z,96806.41
2022-12-26T03:39:08.886Z,96805.03
2022-12-26T03:42:16.705Z,96819.44
2022-12-26T03:45:22.425Z,96811.88
2022-12-26T03:48:20.594Z,96806.00
2022-12-26T03:51:12.605Z,96810.78
2022-12-26T03:54:13.336Z,96812.00
2022-12-26T03:57:04.671Z,96816.09
2022-12-26T03:59:52.927Z,96815.06
2022-12-26T04:02:49.799Z,96821.06
2022-12-26T04:05:35.633Z,96834.81
2022-12-26T04:11:47.311Z,96833.00
2022-12-26T04:14:39.374Z,96833.97
2022-12-26T04:20:33.579Z,96848.19
2022-12-26T04:23:24.516Z,96833.09
2022-12-26T04:29:37.771Z,96822.75
2022-12-26T04:32:36.736Z,96825.16
2022-12-26T04:35:30.991Z,96821.81
2022-12-26T04:38:17.779Z,96817.13
2022-12-26T04:41:04.474Z,96820.94
2022-12-26T04:44:26.215Z,96829.44
2022-12-26T04:46:53.945Z,96829.56
2022-12-26T04:49:49.911Z,96830.69
2022-12-26T04:52:16.341Z,96827.94
2022-12-26T04:54:42.694Z,96836.50
2022-12-26T04:57:09.277Z,96831.78
2022-12-26T04:59:35.666Z,96834.94
2022-12-26T05:02:22.625Z,96825.84
2022-12-26T05:05:07.703Z,96819.00
2022-12-26T05:07:57.151Z,96821.06
2022-12-26T05:10:25.521Z,96816.25
2022-12-26T05:12:53.268Z,96828.69
2022-12-26T05:15:19.996Z,96836.25
2022-12-26T05:18:13.299Z,96833.19
2022-12-26T05:20:58.851Z,96827.28
2022-12-26T05:23:45.777Z,96837.72
2022-12-26T05:26:41.821Z,96839.59
2022-12-26T05:29:44.318Z,96834.91
2022-12-26T05:32:10.751Z,96836.44
2022-12-26T05:34:37.133Z,96837.09
2022-12-26T05:37:03.571Z,96837.59
2022-12-26T05:39:29.913Z,96827.03
2022-12-26T05:42:00.423Z,96825.25
2022-12-26T05:44:26.760Z,96833.75
2022-12-26T05:47:01.409Z,96828.53
2022-12-26T05:49:27.749Z,96829.78
2022-12-26T05:51:56.139Z,96834.72
2022-12-26T05:54:22.463Z,96833.44
2022-12-26T05:56:56.078Z,96841.00
2022-12-26T05:59:22.528Z,96843.91
2022-12-26T06:01:57.008Z,96843.19
2022-12-26T06:04:23.502Z,96840.16
2022-12-26T06:07:07.900Z,96831.22
2022-12-26T06:09:34.331Z,96831.88
2022-12-26T06:12:08.553Z,96826.66
2022-12-26T06:14:34.906Z,96826.38
2022-12-26T06:20:28.764Z,96813.38
2022-12-26T06:22:55.166Z,96811.75
2022-12-26T06:25:34.768Z,96813.09
2022-12-26T06:28:01.094Z,96811.16
2022-12-26T06:30:27.419Z,96801.34
2022-12-26T06:32:53.800Z,96795.19
2022-12-26T06:35:20.228Z,96794.28
2022-12-26T06:37:46.569Z,96788.75
2022-12-26T06:40:12.937Z,96789.72
2022-12-26T06:42:39.323Z,96799.50
2022-12-26T06:45:05.875Z,96808.63
2022-12-26T06:47:39.357Z,96816.19
2022-12-26T06:50:05.973Z,96817.47
2022-12-26T06:53:00.390Z,96806.59
2022-12-26T06:55:26.722Z,96811.66
2022-12-26T06:57:55.164Z,96810.00
2022-12-26T07:00:25.157Z,96818.25
2022-12-26T07:02:52.582Z,96822.56
2022-12-26T07:05:59.971Z,96813.63
2022-12-26T07:08:26.439Z,96828.84
2022-12-26T07:10:52.759Z,96829.75
2022-12-26T07:13:19.097Z,96836.13
2022-12-26T07:15:45.419Z,96837.47
2022-12-26T07:18:11.731Z,96830.88
2022-12-26T07:20:38.071Z,96835.78
2022-12-26T07:23:04.471Z,96830.28
2022-12-26T07:25:30.840Z,96830.28
2022-12-26T07:28:20.976Z,96820.66
2022-12-26T07:30:48.313Z,96827.66
2022-12-26T07:33:14.640Z,96834.59
2022-12-26T07:35:46.235Z,96832.19
2022-12-26T07:38:12.740Z,96829.28
2022-12-26T07:40:39.152Z,96833.31
2022-12-26T07:43:06.511Z,96834.78
2022-12-26T07:45:32.905Z,96838.25
2022-12-26T07:47:59.356Z,96845.94
2022-12-26T07:50:26.791Z,96846.44
2022-12-26T07:53:01.358Z,96834.78
2022-12-26T07:55:27.743Z,96852.16
2022-12-26T07:57:54.254Z,96854.13
2022-12-26T08:00:20.786Z,96852.31
2022-12-26T08:02:48.439Z,96854.44
2022-12-26T08:05:15.441Z,96856.91
2022-12-26T08:07:41.866Z,96859.16
2022-12-26T08:10:08.447Z,96860.50
2022-12-26T08:12:47.164Z,96868.34
2022-12-26T08:15:13.840Z,96868.47
2022-12-26T08:17:40.175Z,96859.34
2022-12-26T08:20:06.730Z,96860.28
2022-12-26T08:22:38.109Z,96855.41
2022-12-26T08:25:04.747Z,96861.84
2022-12-26T08:27:31.070Z,96862.38
2022-12-26T08:30:09.021Z,96864.03
2022-12-26T08:32:36.237Z,96869.25
2022-12-26T08:35:18.087Z,96875.13
2022-12-26T08:37:44.443Z,96868.94
2022-12-26T08:40:42.031Z,96870.88
2022-12-26T08:43:33.377Z,96874.13
2022-12-26T08:46:03.532Z,96874.78
2022-12-26T08:48:32.406Z,96878.88
2022-12-26T08:51:00.215Z,96886.56
2022-12-26T08:53:38.466Z,96880.88
2022-12-26T08:56:06.722Z,96880.72
2022-12-26T08:58:45.762Z,96879.09
2022-12-26T09:01:13.698Z,96871.00
2022-12-26T09:04:07.365Z,96865.13
2022-12-26T09:06:35.243Z,96860.75
2022-12-26T09:09:02.117Z,96861.63
2022-12-26T09:11:28.762Z,96856.75
2022-12-26T09:13:56.456Z,96845.28
2022-12-26T09:16:27.059Z,96842.53
2022-12-26T09:19:04.658Z,96846.63
2022-12-26T09:21:31.017Z,96853.34
2022-12-26T09:23:58.507Z,96854.31
2022-12-26T09:26:25.045Z,96860.34
2022-12-26T09:28:51.534Z,96873.63
2022-12-26T09:31:19.841Z,96875.28
2022-12-26T09:33:47.319Z,96871.84
2022-12-26T09:36:15.411Z,96872.50
2022-12-26T09:38:42.366Z,96881.41
2022-12-26T09:41:14.705Z,96878.72
2022-12-26T09:44:02.296Z,96890.25
2022-12-26T09:46:43.976Z,96887.56
2022-12-26T09:49:16.115Z,96883.88
2022-12-26T09:51:44.534Z,96878.25
2022-12-26T09:54:15.170Z,96879.13
2022-12-26T09:59:44.741Z,96886.53
2022-12-26T10:02:17.793Z,96892.44
2022-12-26T10:04:52.245Z,96890.03
2022-12-26T10:07:18.623Z,96888.53
2022-12-26T10:09:55.316Z,96885.88
2022-12-26T10:12:41.520Z,96873.50
2022-12-26T10:15:15.141Z,96865.00
2022-12-26T10:17:57.835Z,96861.50
2022-12-26T10:20:35.568Z,96860.38
2022-12-26T10:23:31.127Z,96850.41
2022-12-26T10:26:01.318Z,96839.78
2022-12-26T10:28:32.241Z,96842.72
2022-12-26T10:31:00.902Z,96849.75
2022-12-26T10:33:35.692Z,96853.69
2022-12-26T10:36:02.322Z,96851.41
2022-12-26T10:38:40.912Z,96854.97
2022-12-26T10:41:23.115Z,96853.19
2022-12-26T10:43:49.663Z,96853.34
2022-12-26T10:46:28.409Z,96859.25
2022-12-26T10:48:55.074Z,96870.38
2022-12-26T10:51:21.546Z,96882.16
2022-12-26T10:53:49.627Z,96886.09
2022-12-26T10:56:18.243Z,96882.81
2022-12-26T10:58:45.895Z,96888.56
2022-12-26T11:01:28.454Z,96883.81
2022-12-26T11:04:01.234Z,96885.13
2022-12-26T11:06:36.604Z,96897.84
2022-12-26T11:09:02.975Z,96906.25
2022-12-26T11:11:45.900Z,96914.91
2022-12-26T11:14:31.691Z,96923.06
2022-12-26T11:17:01.856Z,96924.66
2022-12-26T11:19:30.962Z,96921.06
2022-12-26T11:22:14.543Z,96916.34
2022-12-26T11:24:41.024Z,96922.75
2022-12-26T11:27:17.981Z,96925.72
2022-12-26T11:29:44.334Z,96930.28
2022-12-26T11:32:15.904Z,96929.69
2022-12-26T11:34:47.534Z,96928.34
2022-12-26T11:37:40.340Z,96926.72
2022-12-26T11:40:07.070Z,96920.19
2022-12-26T11:42:33.564Z,96905.47
2022-12-26T11:45:12.468Z,96910.84
2022-12-26T11:47:44.476Z,96903.78
2022-12-26T11:50:17.756Z,96901.50
2022-12-26T11:52:47.116Z,96907.25
2022-12-26T11:55:33.863Z,96899.59
2022-12-26T11:58:01.786Z,96885.81
2022-12-26T12:00:28.839Z,96882.03
2022-12-26T12:02:55.227Z,96882.22
2022-12-26T12:05:22.713Z,96878.28
2022-12-26T12:07:49.023Z,96879.25
2022-12-26T12:10:34.652Z,96875.19
2022-12-26T12:13:13.400Z,96874.69
2022-12-26T12:15:55.274Z,96870.41
2022-12-26T12:18:41.600Z,96869.75
2022-12-26T12:21:27.041Z,96867.78
2022-12-26T12:24:13.916Z,96878.59
2022-12-26T12:26:54.912Z,96863.84
2022-12-26T12:32:55.191Z,96853.34
2022-12-26T12:39:17.980Z,96862.72
2022-12-26T12:41:58.729Z,96865.81
2022-12-26T12:44:25.060Z,96859.91
2022-12-26T12:47:03.668Z,96863.84
2022-12-26T12:53:09.346Z,96882.06
2022-12-26T12:59:11.333Z,96870.75
2022-12-26T13:01:44.212Z,96869.75
2022-12-26T13:04:18.471Z,96866.47
2022-12-26T13:06:44.876Z,96875.16
2022-12-26T13:09:20.560Z,96893.66
2022-12-26T13:18:52.794Z,96858.97
2022-12-26T13:21:20.480Z,96858.28
2022-12-26T13:24:05.768Z,96862.22
2022-12-26T13:26:37.764Z,96870.72
2022-12-26T13:29:09.676Z,96868.13
2022-12-26T13:35:05.386Z,96866.81
2022-12-26T13:41:20.953Z,96878.94
2022-12-26T13:44:05.237Z,96879.91
2022-12-26T13:46:40.716Z,96881.88
2022-12-26T13:52:35.736Z,96877.63
2022-12-26T13:55:04.821Z,96866.81
2022-12-26T13:57:36.704Z,96873.03
2022-12-26T14:03:25.012Z,96889.59
2022-12-26T14:05:54.555Z,96881.06
2022-12-26T14:08:36.025Z,96880.88
2022-12-26T14:11:05.220Z,96889.91
2022-12-26T14:13:50.298Z,96884.50
2022-12-26T14:16:28.735Z,96889.72
2022-12-26T14:22:23.168Z,96891.38
2022-12-26T14:24:55.682Z,96899.91
2022-12-26T14:27:22.035Z,96900.56
2022-12-26T14:40:15.712Z,96896.63
2022-12-26T14:43:13.677Z,96907.06
2022-12-26T14:49:22.339Z,96896.09
2022-12-26T14:55:29.371Z,96897.69
2022-12-26T14:57:55.920Z,96900.31
2022-12-26T15:00:22.241Z,96897.59
2022-12-26T15:03:03.839Z,96884.16
2022-12-26T15:05:36.139Z,96884.66
2022-12-26T15:08:05.384Z,96882.38
2022-12-26T15:10:37.515Z,96889.38
2022-12-26T15:16:40.988Z,96895.16
2022-12-26T15:22:44.294Z,96892.34
2022-12-26T15:25:21.912Z,96894.63
2022-12-26T15:28:15.285Z,96900.34
2022-12-26T15:30:56.949Z,96901.03
2022-12-26T15:33:23.356Z,96908.88
2022-12-26T15:39:29.316Z,96892.34
2022-12-26T15:45:39.935Z,96899.25
2022-12-26T15:51:34.904Z,96902.69
2022-12-26T15:54:01.189Z,96910.72
2022-12-26T15:56:33.356Z,96909.06
2022-12-26T15:59:30.776Z,96914.81
2022-12-26T16:05:56.087Z,96907.63
2022-12-26T16:08:31.630Z,96908.88
2022-12-26T16:11:14.852Z,96905.13
2022-12-26T16:13:55.252Z,96911.31
2022-12-26T16:16:32.510Z,96911.19
2022-12-26T16:22:46.724Z,96909.38
2022-12-26T16:28:42.461Z,96923.78
2022-12-26T16:34:36.903Z,96932.28
2022-12-26T16:37:03.503Z,96924.75
2022-12-26T16:42:59.476Z,96919.19
2022-12-26T16:48:58.635Z,96914.91
2022-12-26T16:51:32.868Z,96922.41
2022-12-26T16:54:14.876Z,96917.38
2022-12-26T16:56:44.526Z,96910.94
2022-12-26T16:59:17.837Z,96913.56
2022-12-26T17:01:52.898Z,96916.53
2022-12-26T17:04:21.081Z,96911.28
2022-12-26T17:06:49.564Z,96912.28
2022-12-26T17:09:17.041Z,96917.00
2022-12-26T17:11:51.510Z,96925.06
2022-12-26T17:14:21.110Z,96930.25
2022-12-26T17:16:47.441Z,96912.78
2022-12-26T17:19:18.692Z,96913.94
2022-12-26T17:22:03.529Z,96906.41
2022-12-26T17:24:30.177Z,96894.78
2022-12-26T17:30:31.073Z,96879.88
2022-12-26T17:37:08.295Z,96874.94
2022-12-26T17:39:13.000Z,96870.31
2022-12-26T17:45:09.505Z,96875.91
2022-12-26T17:47:35.838Z,96870.19
2022-12-26T17:50:02.226Z,96875.94
2022-12-26T17:52:29.280Z,96880.19
2022-12-26T17:58:17.421Z,96881.81
2022-12-26T18:04:05.247Z,96884.91
2022-12-26T18:06:31.575Z,96890.97
2022-12-26T18:08:58.303Z,96898.97
2022-12-26T18:11:24.667Z,96886.84
2022-12-26T18:13:51.067Z,96899.63
2022-12-26T18:16:19.057Z,96902.06
2022-12-26T18:22:14.325Z,96901.06
2022-12-26T18:24:41.102Z,96902.25
2022-12-26T18:27:07.944Z,96897.50
2022-12-26T18:33:02.942Z,96900.63
2022-12-26T18:38:58.284Z,96884.25
2022-12-26T18:44:52.692Z,96892.56
2022-12-26T18:47:20.528Z,96896.84
2022-12-26T18:49:47.512Z,96884.75
2022-12-26T18:52:17.681Z,96888.84
2022-12-26T18:54:45.671Z,96882.94
2022-12-26T18:57:15.851Z,96876.78
2022-12-26T18:59:42.287Z,96869.38
2022-12-26T19:02:15.109Z,96875.44
2022-12-26T19:04:41.504Z,96878.50
2022-12-26T19:07:08.846Z,96882.94
2022-12-26T19:09:37.214Z,96880.44
2022-12-26T19:12:03.638Z,96875.91
2022-12-26T19:14:30.049Z,96869.69
2022-12-26T19:16:56.375Z,96872.94
2022-12-26T19:19:26.304Z,96875.44
2022-12-26T19:21:52.630Z,96884.03
2022-12-26T19:24:19.110Z,96875.41
2022-12-26T19:26:45.493Z,96880.63
2022-12-26T19:29:11.930Z,96879.81
2022-12-26T19:31:38.417Z,96884.09
2022-12-26T19:34:04.769Z,96887.97
2022-12-26T19:36:31.203Z,96892.47
2022-12-26T19:38:57.747Z,96894.63
2022-12-26T19:41:24.081Z,96899.44
2022-12-26T19:43:55.032Z,96899.50
2022-12-26T19:46:22.352Z,96911.91
2022-12-26T19:48:48.707Z,96933.50
2022-12-26T19:51:15.704Z,96929.44
2022-12-26T19:53:44.757Z,96951.38
2022-12-26T19:56:12.773Z,96945.31
2022-12-26T19:58:39.445Z,96955.66
2022-12-26T20:01:13.210Z,96956.50
2022-12-26T20:03:40.271Z,97005.19
2022-12-26T20:06:10.586Z,97003.03
2022-12-26T20:08:38.287Z,96998.50
2022-12-26T20:11:05.519Z,96990.97
2022-12-26T20:13:31.934Z,96993.38
2022-12-26T20:16:03.283Z,97011.72
2022-12-26T20:18:29.830Z,97023.66
2022-12-26T20:20:56.240Z,97019.91
2022-12-26T20:23:22.666Z,97015.03
2022-12-26T20:25:49.046Z,97022.38
2022-12-26T20:28:15.426Z,97028.09
2022-12-26T20:30:43.849Z,97031.94
2022-12-26T20:33:10.477Z,97028.16
2022-12-26T20:35:36.839Z,97024.84
2022-12-26T20:38:03.219Z,97029.63
2022-12-26T20:40:29.571Z,97040.41
2022-12-26T20:42:57.191Z,97047.13
2022-12-26T20:45:23.536Z,97048.16
2022-12-26T20:47:49.996Z,97038.22
2022-12-26T20:50:17.507Z,97028.84
2022-12-26T20:52:45.967Z,97028.75
2022-12-26T20:55:12.316Z,97028.59
2022-12-26T20:57:38.767Z,97040.19
2022-12-26T21:00:05.832Z,97043.75
2022-12-26T21:02:32.443Z,97055.56
2022-12-26T21:04:59.895Z,97030.31
2022-12-26T21:07:26.244Z,97026.22
2022-12-26T21:09:52.598Z,97036.88
2022-12-26T21:12:19.003Z,97036.84
2022-12-26T21:14:45.394Z,97037.75
2022-12-26T21:17:11.922Z,97048.13
2022-12-26T21:19:38.331Z,97048.03
2022-12-26T21:22:04.706Z,97057.47
2022-12-26T21:24:31.688Z,97045.31
2022-12-26T21:26:58.128Z,97056.13
2022-12-26T21:29:26.242Z,97055.50
2022-12-26T21:31:52.912Z,97051.19
2022-12-26T21:34:20.921Z,97063.78
2022-12-26T21:37:07.431Z,97060.22
2022-12-26T21:39:34.526Z,97063.88
2022-12-26T21:42:02.441Z,97069.47
2022-12-26T21:44:29.888Z,97081.66
2022-12-26T21:46:57.564Z,97071.69
2022-12-26T21:49:23.986Z,97081.28
2022-12-26T21:51:50.337Z,97086.22
2022-12-26T21:54:36.015Z,97090.78
2022-12-26T21:57:02.354Z,97094.06
2022-12-26T21:59:47.540Z,97083.00
2022-12-26T22:02:32.904Z,97088.47
2022-12-26T22:05:00.346Z,97092.06
2022-12-26T22:07:26.986Z,97093.59
2022-12-26T22:09:56.518Z,97094.41
2022-12-26T22:12:41.428Z,97097.44
2022-12-26T22:15:31.619Z,97095.16
2022-12-26T22:17:57.951Z,97096.97
2022-12-26T22:20:24.716Z,97107.00
2022-12-26T22:22:51.901Z,97111.28
2022-12-26T22:25:19.395Z,97119.03
2022-12-26T22:27:45.994Z,97124.06
2022-12-26T22:30:12.684Z,97129.47
2022-12-26T22:32:39.066Z,97122.53
2022-12-26T22:35:05.762Z,97133.78
2022-12-26T22:37:32.146Z,97132.53
2022-12-26T22:39:58.503Z,97132.66
2022-12-26T22:42:25.880Z,97134.88
2022-12-26T22:44:53.276Z,97130.38
2022-12-26T22:47:19.710Z,97143.72
2022-12-26T22:49:46.021Z,97144.44
2022-12-26T22:52:15.884Z,97143.19
2022-12-26T22:54:43.700Z,97158.38
2022-12-26T22:57:10.094Z,97161.09
2022-12-26T23:00:06.948Z,97165.34
2022-12-26T23:02:22.941Z,97171.09
2022-12-26T23:04:49.510Z,97176.94
2022-12-26T23:07:18.821Z,97168.34
2022-12-26T23:09:45.323Z,97175.91
2022-12-26T23:12:30.352Z,97181.03
2022-12-26T23:14:57.815Z,97185.59
2022-12-26T23:17:43.687Z,97178.25
2022-12-26T23:20:30.612Z,97186.09
2022-12-26T23:22:57.219Z,97186.66
2022-12-26T23:25:23.852Z,97190.25
2022-12-26T23:28:08.660Z,97205.66
2022-12-26T23:30:35.203Z,97205.06
2022-12-26T23:33:01.617Z,97205.22
2022-12-26T23:35:28.176Z,97206.03
2022-12-26T23:37:54.496Z,97216.31
2022-12-26T23:40:21.386Z,97225.69
2022-12-26T23:42:47.747Z,97243.41
2022-12-26T23:45:14.657Z,97249.47
2022-12-26T23:47:42.413Z,97253.44
2022-12-26T23:50:09.642Z,97261.13
2022-12-26T23:52:36.397Z,97265.50
2022-12-26T23:55:03.294Z,97275.25
2022-12-26T23:57:29.607Z,97284.25
2022-12-26T23:59:55.983Z,97285.50
